sensor_id;sensor_type;location;lat;lon;timestamp;P1;durP1;ratioP1;P2;durP2;ratioP2
8171;SDS011;4127;47.908;10.850;2022-08-05T00:00:52;1.67;;;1.58;;
8171;SDS011;4127;47.908;10.850;2022-08-05T00:03:19;1.25;;;1.25;;
8171;SDS011;4127;47.908;10.850;2022-08-05T00:05:47;1.63;;;1.52;;
8171;SDS011;4127;47.908;10.850;2022-08-05T00:08:33;1.55;;;1.45;;
8171;SDS011;4127;47.908;10.850;2022-08-05T00:11:02;1.60;;;1.50;;
8171;SDS011;4127;47.908;10.850;2022-08-05T00:13:46;1.38;;;1.27;;
8171;SDS011;4127;47.908;10.850;2022-08-05T00:16:18;1.23;;;1.23;;
8171;SDS011;4127;47.908;10.850;2022-08-05T00:19:01;1.60;;;1.50;;
8171;SDS011;4127;47.908;10.850;2022-08-05T00:21:29;1.50;;;1.40;;
8171;SDS011;4127;47.908;10.850;2022-08-05T00:24:00;1.70;;;1.60;;
8171;SDS011;4127;47.908;10.850;2022-08-05T00:26:36;1.70;;;1.60;;
8171;SDS011;4127;47.908;10.850;2022-08-05T00:29:03;1.50;;;1.40;;
8171;SDS011;4127;47.908;10.850;2022-08-05T00:31:30;1.58;;;1.48;;
8171;SDS011;4127;47.908;10.850;2022-08-05T00:34:16;1.42;;;1.33;;
8171;SDS011;4127;47.908;10.850;2022-08-05T00:37:03;1.58;;;1.48;;
8171;SDS011;4127;47.908;10.850;2022-08-05T00:39:38;1.50;;;1.40;;
8171;SDS011;4127;47.908;10.850;2022-08-05T00:42:30;1.30;;;1.30;;
8171;SDS011;4127;47.908;10.850;2022-08-05T00:44:59;1.40;;;1.30;;
8171;SDS011;4127;47.908;10.850;2022-08-05T00:47:26;1.48;;;1.38;;
8171;SDS011;4127;47.908;10.850;2022-08-05T00:50:13;1.63;;;1.52;;
8171;SDS011;4127;47.908;10.850;2022-08-05T00:52:40;1.60;;;1.50;;
8171;SDS011;4127;47.908;10.850;2022-08-05T00:55:10;1.60;;;1.50;;
8171;SDS011;4127;47.908;10.850;2022-08-05T00:57:37;1.70;;;1.60;;
8171;SDS011;4127;47.908;10.850;2022-08-05T01:00:24;1.40;;;1.30;;
8171;SDS011;4127;47.908;10.850;2022-08-05T01:02:52;1.55;;;1.45;;
8171;SDS011;4127;47.908;10.850;2022-08-05T01:05:19;1.50;;;1.40;;
8171;SDS011;4127;47.908;10.850;2022-08-05T01:07:46;1.52;;;1.42;;
8171;SDS011;4127;47.908;10.850;2022-08-05T01:10:34;1.67;;;1.58;;
8171;SDS011;4127;47.908;10.850;2022-08-05T01:13:31;1.50;;;1.40;;
8171;SDS011;4127;47.908;10.850;2022-08-05T01:24:51;1.50;;;1.40;;
8171;SDS011;4127;47.908;10.850;2022-08-05T01:30:26;1.83;;;1.73;;
8171;SDS011;4127;47.908;10.850;2022-08-05T01:33:00;1.60;;;1.50;;
8171;SDS011;4127;47.908;10.850;2022-08-05T01:35:33;1.55;;;1.45;;
8171;SDS011;4127;47.908;10.850;2022-08-05T01:38:18;1.58;;;1.48;;
8171;SDS011;4127;47.908;10.850;2022-08-05T01:40:55;1.65;;;1.55;;
8171;SDS011;4127;47.908;10.850;2022-08-05T01:43:24;1.67;;;1.58;;
8171;SDS011;4127;47.908;10.850;2022-08-05T01:45:55;1.52;;;1.42;;
8171;SDS011;4127;47.908;10.850;2022-08-05T01:48:33;1.77;;;1.67;;
8171;SDS011;4127;47.908;10.850;2022-08-05T01:51:02;1.70;;;1.60;;
8171;SDS011;4127;47.908;10.850;2022-08-05T01:53:37;1.65;;;1.55;;
8171;SDS011;4127;47.908;10.850;2022-08-05T01:56:23;1.77;;;1.60;;
8171;SDS011;4127;47.908;10.850;2022-08-05T01:59:18;1.70;;;1.60;;
8171;SDS011;4127;47.908;10.850;2022-08-05T02:01:48;1.88;;;1.77;;
8171;SDS011;4127;47.908;10.850;2022-08-05T02:04:21;1.70;;;1.60;;
8171;SDS011;4127;47.908;10.850;2022-08-05T02:06:48;1.50;;;1.40;;
8171;SDS011;4127;47.908;10.850;2022-08-05T02:09:15;1.60;;;1.50;;
8171;SDS011;4127;47.908;10.850;2022-08-05T02:14:23;2.67;;;1.50;;
8171;SDS011;4127;47.908;10.850;2022-08-05T02:16:59;1.60;;;1.50;;
8171;SDS011;4127;47.908;10.850;2022-08-05T02:19:33;1.42;;;1.33;;
8171;SDS011;4127;47.908;10.850;2022-08-05T02:22:18;1.63;;;1.52;;
8171;SDS011;4127;47.908;10.850;2022-08-05T02:24:55;1.70;;;1.60;;
8171;SDS011;4127;47.908;10.850;2022-08-05T02:27:27;1.63;;;1.52;;
8171;SDS011;4127;47.908;10.850;2022-08-05T02:30:18;1.65;;;1.55;;
8171;SDS011;4127;47.908;10.850;2022-08-05T02:32:47;1.60;;;1.50;;
8171;SDS011;4127;47.908;10.850;2022-08-05T02:35:18;1.80;;;1.70;;
8171;SDS011;4127;47.908;10.850;2022-08-05T02:37:53;1.60;;;1.50;;
8171;SDS011;4127;47.908;10.850;2022-08-05T02:40:27;1.88;;;1.77;;
8171;SDS011;4127;47.908;10.850;2022-08-05T02:42:55;1.63;;;1.52;;
8171;SDS011;4127;47.908;10.850;2022-08-05T02:45:24;1.45;;;1.35;;
8171;SDS011;4127;47.908;10.850;2022-08-05T02:48:12;1.60;;;1.50;;
8171;SDS011;4127;47.908;10.850;2022-08-05T02:50:41;1.67;;;1.58;;
8171;SDS011;4127;47.908;10.850;2022-08-05T02:53:13;1.60;;;1.50;;
8171;SDS011;4127;47.908;10.850;2022-08-05T02:55:45;1.58;;;1.48;;
8171;SDS011;4127;47.908;10.850;2022-08-05T02:58:24;1.58;;;1.48;;
8171;SDS011;4127;47.908;10.850;2022-08-05T03:00:54;1.50;;;1.40;;
8171;SDS011;4127;47.908;10.850;2022-08-05T03:03:22;1.63;;;1.52;;
8171;SDS011;4127;47.908;10.850;2022-08-05T03:05:51;1.52;;;1.42;;
8171;SDS011;4127;47.908;10.850;2022-08-05T03:08:38;1.33;;;1.25;;
8171;SDS011;4127;47.908;10.850;2022-08-05T03:11:17;1.50;;;1.40;;
8171;SDS011;4127;47.908;10.850;2022-08-05T03:14:05;1.70;;;1.60;;
8171;SDS011;4127;47.908;10.850;2022-08-05T03:16:33;1.70;;;1.60;;
8171;SDS011;4127;47.908;10.850;2022-08-05T03:19:01;1.40;;;1.30;;
8171;SDS011;4127;47.908;10.850;2022-08-05T03:21:38;1.73;;;1.63;;
8171;SDS011;4127;47.908;10.850;2022-08-05T03:24:16;1.70;;;1.60;;
8171;SDS011;4127;47.908;10.850;2022-08-05T03:26:55;1.70;;;1.60;;
8171;SDS011;4127;47.908;10.850;2022-08-05T03:29:22;1.67;;;1.58;;
8171;SDS011;4127;47.908;10.850;2022-08-05T03:32:10;1.52;;;1.42;;
8171;SDS011;4127;47.908;10.850;2022-08-05T03:34:39;1.42;;;1.33;;
8171;SDS011;4127;47.908;10.850;2022-08-05T03:37:07;1.70;;;1.60;;
8171;SDS011;4127;47.908;10.850;2022-08-05T03:39:35;1.60;;;1.50;;
8171;SDS011;4127;47.908;10.850;2022-08-05T03:42:22;1.80;;;1.70;;
8171;SDS011;4127;47.908;10.850;2022-08-05T03:44:54;1.65;;;1.55;;
8171;SDS011;4127;47.908;10.850;2022-08-05T03:47:22;1.67;;;1.58;;
8171;SDS011;4127;47.908;10.850;2022-08-05T03:49:49;1.60;;;1.50;;
8171;SDS011;4127;47.908;10.850;2022-08-05T03:52:21;1.70;;;1.60;;
8171;SDS011;4127;47.908;10.850;2022-08-05T03:55:14;1.63;;;1.52;;
8171;SDS011;4127;47.908;10.850;2022-08-05T03:58:08;1.60;;;1.50;;
8171;SDS011;4127;47.908;10.850;2022-08-05T04:00:37;1.45;;;1.35;;
8171;SDS011;4127;47.908;10.850;2022-08-05T04:03:09;1.70;;;1.60;;
8171;SDS011;4127;47.908;10.850;2022-08-05T04:05:53;1.50;;;1.40;;
8171;SDS011;4127;47.908;10.850;2022-08-05T04:08:24;1.83;;;1.73;;
8171;SDS011;4127;47.908;10.850;2022-08-05T04:11:02;1.80;;;1.70;;
8171;SDS011;4127;47.908;10.850;2022-08-05T04:13:33;1.50;;;1.40;;
8171;SDS011;4127;47.908;10.850;2022-08-05T04:16:18;1.65;;;1.55;;
8171;SDS011;4127;47.908;10.850;2022-08-05T04:18:50;1.63;;;1.52;;
8171;SDS011;4127;47.908;10.850;2022-08-05T04:21:20;1.67;;;1.58;;
8171;SDS011;4127;47.908;10.850;2022-08-05T04:24:07;1.80;;;1.70;;
8171;SDS011;4127;47.908;10.850;2022-08-05T04:26:45;1.95;;;1.63;;
8171;SDS011;4127;47.908;10.850;2022-08-05T04:29:12;1.77;;;1.67;;
8171;SDS011;4127;47.908;10.850;2022-08-05T04:31:39;1.55;;;1.45;;
8171;SDS011;4127;47.908;10.850;2022-08-05T04:34:08;1.52;;;1.42;;
8171;SDS011;4127;47.908;10.850;2022-08-05T04:36:54;1.40;;;1.30;;
8171;SDS011;4127;47.908;10.850;2022-08-05T04:39:21;1.63;;;1.52;;
8171;SDS011;4127;47.908;10.850;2022-08-05T04:41:49;1.65;;;1.55;;
8171;SDS011;4127;47.908;10.850;2022-08-05T04:44:16;1.60;;;1.50;;
8171;SDS011;4127;47.908;10.850;2022-08-05T04:46:54;1.60;;;1.50;;
8171;SDS011;4127;47.908;10.850;2022-08-05T04:49:21;1.60;;;1.50;;
8171;SDS011;4127;47.908;10.850;2022-08-05T04:51:49;1.92;;;1.58;;
8171;SDS011;4127;47.908;10.850;2022-08-05T04:54:25;1.75;;;1.65;;
8171;SDS011;4127;47.908;10.850;2022-08-05T04:56:53;1.73;;;1.63;;
8171;SDS011;4127;47.908;10.850;2022-08-05T04:59:24;2.78;;;1.50;;
8171;SDS011;4127;47.908;10.850;2022-08-05T05:02:04;1.70;;;1.60;;
8171;SDS011;4127;47.908;10.850;2022-08-05T05:04:52;1.60;;;1.50;;
8171;SDS011;4127;47.908;10.850;2022-08-05T05:07:28;1.60;;;1.50;;
8171;SDS011;4127;47.908;10.850;2022-08-05T05:10:00;1.58;;;1.48;;
8171;SDS011;4127;47.908;10.850;2022-08-05T05:12:31;1.67;;;1.58;;
8171;SDS011;4127;47.908;10.850;2022-08-05T05:14:58;1.60;;;1.50;;
8171;SDS011;4127;47.908;10.850;2022-08-05T05:17:35;1.70;;;1.60;;
8171;SDS011;4127;47.908;10.850;2022-08-05T05:20:22;1.80;;;1.70;;
8171;SDS011;4127;47.908;10.850;2022-08-05T05:22:54;1.70;;;1.60;;
8171;SDS011;4127;47.908;10.850;2022-08-05T05:25:22;1.75;;;1.65;;
8171;SDS011;4127;47.908;10.850;2022-08-05T05:28:05;1.67;;;1.58;;
8171;SDS011;4127;47.908;10.850;2022-08-05T05:30:32;1.90;;;1.80;;
8171;SDS011;4127;47.908;10.850;2022-08-05T05:33:00;1.83;;;1.73;;
8171;SDS011;4127;47.908;10.850;2022-08-05T05:35:41;1.83;;;1.73;;
8171;SDS011;4127;47.908;10.850;2022-08-05T05:38:08;1.85;;;1.75;;
8171;SDS011;4127;47.908;10.850;2022-08-05T05:40:39;1.75;;;1.65;;
8171;SDS011;4127;47.908;10.850;2022-08-05T05:43:17;1.67;;;1.58;;
8171;SDS011;4127;47.908;10.850;2022-08-05T05:46:05;1.90;;;1.80;;
8171;SDS011;4127;47.908;10.850;2022-08-05T05:48:41;1.90;;;1.80;;
8171;SDS011;4127;47.908;10.850;2022-08-05T05:51:09;1.65;;;1.55;;
8171;SDS011;4127;47.908;10.850;2022-08-05T05:53:41;1.65;;;1.55;;
8171;SDS011;4127;47.908;10.850;2022-08-05T05:56:28;1.95;;;1.85;;
8171;SDS011;4127;47.908;10.850;2022-08-05T05:58:59;2.65;;;2.42;;
8171;SDS011;4127;47.908;10.850;2022-08-05T06:01:35;2.15;;;2.05;;
8171;SDS011;4127;47.908;10.850;2022-08-05T06:04:05;1.92;;;1.83;;
8171;SDS011;4127;47.908;10.850;2022-08-05T06:06:36;1.90;;;1.80;;
8171;SDS011;4127;47.908;10.850;2022-08-05T06:09:07;2.67;;;2.47;;
8171;SDS011;4127;47.908;10.850;2022-08-05T06:11:42;2.60;;;2.35;;
8171;SDS011;4127;47.908;10.850;2022-08-05T06:14:25;2.20;;;2.10;;
8171;SDS011;4127;47.908;10.850;2022-08-05T06:16:54;2.08;;;1.98;;
8171;SDS011;4127;47.908;10.850;2022-08-05T06:19:22;2.83;;;2.40;;
8171;SDS011;4127;47.908;10.850;2022-08-05T06:22:01;2.15;;;2.05;;
8171;SDS011;4127;47.908;10.850;2022-08-05T06:24:32;2.10;;;2.00;;
8171;SDS011;4127;47.908;10.850;2022-08-05T06:27:01;2.20;;;2.10;;
8171;SDS011;4127;47.908;10.850;2022-08-05T06:29:29;2.55;;;2.35;;
8171;SDS011;4127;47.908;10.850;2022-08-05T06:32:16;2.10;;;2.00;;
8171;SDS011;4127;47.908;10.850;2022-08-05T06:34:54;2.40;;;2.20;;
8171;SDS011;4127;47.908;10.850;2022-08-05T06:37:26;2.33;;;2.22;;
8171;SDS011;4127;47.908;10.850;2022-08-05T06:40:13;2.60;;;2.40;;
8171;SDS011;4127;47.908;10.850;2022-08-05T06:42:46;2.30;;;2.10;;
8171;SDS011;4127;47.908;10.850;2022-08-05T06:45:17;2.10;;;2.00;;
8171;SDS011;4127;47.908;10.850;2022-08-05T06:48:08;2.95;;;2.45;;
8171;SDS011;4127;47.908;10.850;2022-08-05T06:50:54;2.30;;;2.10;;
8171;SDS011;4127;47.908;10.850;2022-08-05T06:53:22;2.90;;;2.58;;
8171;SDS011;4127;47.908;10.850;2022-08-05T06:55:55;2.50;;;2.30;;
8171;SDS011;4127;47.908;10.850;2022-08-05T06:58:25;2.50;;;2.30;;
8171;SDS011;4127;47.908;10.850;2022-08-05T07:01:02;2.58;;;2.38;;
8171;SDS011;4127;47.908;10.850;2022-08-05T07:03:30;2.20;;;2.10;;
8171;SDS011;4127;47.908;10.850;2022-08-05T07:05:58;2.25;;;2.10;;
8171;SDS011;4127;47.908;10.850;2022-08-05T07:08:39;2.33;;;2.13;;
8171;SDS011;4127;47.908;10.850;2022-08-05T07:11:16;2.45;;;2.25;;
8171;SDS011;4127;47.908;10.850;2022-08-05T07:13:48;2.50;;;2.30;;
8171;SDS011;4127;47.908;10.850;2022-08-05T07:16:45;2.40;;;2.20;;
8171;SDS011;4127;47.908;10.850;2022-08-05T07:19:35;2.42;;;2.22;;
8171;SDS011;4127;47.908;10.850;2022-08-05T07:22:22;2.53;;;2.33;;
8171;SDS011;4127;47.908;10.850;2022-08-05T07:24:58;2.63;;;2.42;;
8171;SDS011;4127;47.908;10.850;2022-08-05T07:27:49;2.97;;;2.50;;
8171;SDS011;4127;47.908;10.850;2022-08-05T07:30:25;2.90;;;2.70;;
8171;SDS011;4127;47.908;10.850;2022-08-05T07:32:59;2.42;;;2.25;;
8171;SDS011;4127;47.908;10.850;2022-08-05T07:35:38;2.50;;;2.30;;
8171;SDS011;4127;47.908;10.850;2022-08-05T07:38:26;2.92;;;2.45;;
8171;SDS011;4127;47.908;10.850;2022-08-05T07:41:04;2.20;;;2.10;;
8171;SDS011;4127;47.908;10.850;2022-08-05T07:43:53;2.50;;;2.30;;
8171;SDS011;4127;47.908;10.850;2022-08-05T07:46:22;2.10;;;2.00;;
8171;SDS011;4127;47.908;10.850;2022-08-05T07:48:54;2.50;;;2.30;;
8171;SDS011;4127;47.908;10.850;2022-08-05T07:51:29;2.15;;;2.05;;
8171;SDS011;4127;47.908;10.850;2022-08-05T07:54:03;2.42;;;2.22;;
8171;SDS011;4127;47.908;10.850;2022-08-05T07:56:33;2.40;;;2.25;;
8171;SDS011;4127;47.908;10.850;2022-08-05T07:59:20;2.55;;;2.35;;
8171;SDS011;4127;47.908;10.850;2022-08-05T08:02:03;2.40;;;2.20;;
8171;SDS011;4127;47.908;10.850;2022-08-05T08:04:41;2.85;;;2.65;;
8171;SDS011;4127;47.908;10.850;2022-08-05T08:07:10;2.65;;;2.45;;
8171;SDS011;4127;47.908;10.850;2022-08-05T08:09:37;2.67;;;2.47;;
8171;SDS011;4127;47.908;10.850;2022-08-05T08:12:04;2.65;;;2.25;;
8171;SDS011;4127;47.908;10.850;2022-08-05T08:14:51;3.25;;;3.03;;
8171;SDS011;4127;47.908;10.850;2022-08-05T08:17:18;2.78;;;2.58;;
8171;SDS011;4127;47.908;10.850;2022-08-05T08:19:46;2.42;;;2.22;;
8171;SDS011;4127;47.908;10.850;2022-08-05T08:22:34;2.58;;;2.38;;
8171;SDS011;4127;47.908;10.850;2022-08-05T08:25:01;2.40;;;2.20;;
8171;SDS011;4127;47.908;10.850;2022-08-05T08:27:41;2.50;;;2.30;;
8171;SDS011;4127;47.908;10.850;2022-08-05T08:30:16;2.63;;;2.42;;
8171;SDS011;4127;47.908;10.850;2022-08-05T08:32:55;2.60;;;2.40;;
8171;SDS011;4127;47.908;10.850;2022-08-05T08:35:22;2.20;;;2.10;;
8171;SDS011;4127;47.908;10.850;2022-08-05T08:37:51;2.45;;;2.25;;
8171;SDS011;4127;47.908;10.850;2022-08-05T08:40:21;3.83;;;2.97;;
8171;SDS011;4127;47.908;10.850;2022-08-05T08:42:49;2.83;;;2.60;;
8171;SDS011;4127;47.908;10.850;2022-08-05T08:45:19;2.50;;;2.30;;
8171;SDS011;4127;47.908;10.850;2022-08-05T08:47:54;4.22;;;2.47;;
8171;SDS011;4127;47.908;10.850;2022-08-05T08:50:43;2.65;;;2.45;;
8171;SDS011;4127;47.908;10.850;2022-08-05T08:53:35;2.50;;;2.30;;
8171;SDS011;4127;47.908;10.850;2022-08-05T08:56:09;2.00;;;1.90;;
8171;SDS011;4127;47.908;10.850;2022-08-05T08:58:36;2.38;;;2.17;;
8171;SDS011;4127;47.908;10.850;2022-08-05T09:01:12;2.50;;;2.30;;
8171;SDS011;4127;47.908;10.850;2022-08-05T09:03:45;2.50;;;2.30;;
8171;SDS011;4127;47.908;10.850;2022-08-05T09:06:23;2.80;;;2.60;;
8171;SDS011;4127;47.908;10.850;2022-08-05T09:08:59;2.50;;;2.30;;
8171;SDS011;4127;47.908;10.850;2022-08-05T09:11:27;2.50;;;2.30;;
8171;SDS011;4127;47.908;10.850;2022-08-05T09:14:14;2.90;;;2.60;;
8171;SDS011;4127;47.908;10.850;2022-08-05T09:17:08;2.60;;;2.40;;
8171;SDS011;4127;47.908;10.850;2022-08-05T09:19:57;2.60;;;2.13;;
8171;SDS011;4127;47.908;10.850;2022-08-05T09:22:37;2.20;;;1.98;;
8171;SDS011;4127;47.908;10.850;2022-08-05T09:25:30;2.13;;;2.03;;
8171;SDS011;4127;47.908;10.850;2022-08-05T09:34:00;2.70;;;2.50;;
8171;SDS011;4127;47.908;10.850;2022-08-05T09:39:24;2.30;;;2.10;;
8171;SDS011;4127;47.908;10.850;2022-08-05T09:42:11;2.50;;;2.30;;
8171;SDS011;4127;47.908;10.850;2022-08-05T09:44:53;2.63;;;2.42;;
8171;SDS011;4127;47.908;10.850;2022-08-05T09:47:25;2.58;;;2.38;;
8171;SDS011;4127;47.908;10.850;2022-08-05T09:50:12;3.28;;;2.25;;
8171;SDS011;4127;47.908;10.850;2022-08-05T09:52:57;2.25;;;2.15;;
8171;SDS011;4127;47.908;10.850;2022-08-05T09:55:24;2.20;;;2.10;;
8171;SDS011;4127;47.908;10.850;2022-08-05T09:58:11;2.03;;;1.92;;
8171;SDS011;4127;47.908;10.850;2022-08-05T10:03:40;4.15;;;2.10;;
8171;SDS011;4127;47.908;10.850;2022-08-05T10:06:25;2.75;;;2.45;;
8171;SDS011;4127;47.908;10.850;2022-08-05T10:09:13;2.55;;;2.35;;
8171;SDS011;4127;47.908;10.850;2022-08-05T10:11:53;2.60;;;2.40;;
8171;SDS011;4127;47.908;10.850;2022-08-05T10:14:52;2.80;;;2.60;;
8171;SDS011;4127;47.908;10.850;2022-08-05T10:17:19;3.28;;;2.58;;
8171;SDS011;4127;47.908;10.850;2022-08-05T10:20:04;2.70;;;2.50;;
8171;SDS011;4127;47.908;10.850;2022-08-05T10:22:36;2.45;;;2.25;;
8171;SDS011;4127;47.908;10.850;2022-08-05T10:25:08;2.17;;;2.08;;
8171;SDS011;4127;47.908;10.850;2022-08-05T10:27:39;2.22;;;1.85;;
8171;SDS011;4127;47.908;10.850;2022-08-05T10:30:26;2.53;;;2.10;;
8171;SDS011;4127;47.908;10.850;2022-08-05T10:33:13;2.08;;;1.98;;
8171;SDS011;4127;47.908;10.850;2022-08-05T10:35:40;2.20;;;2.08;;
8171;SDS011;4127;47.908;10.850;2022-08-05T10:38:10;2.17;;;1.98;;
8171;SDS011;4127;47.908;10.850;2022-08-05T10:46:43;2.30;;;2.20;;
8171;SDS011;4127;47.908;10.850;2022-08-05T10:49:19;2.20;;;2.00;;
8171;SDS011;4127;47.908;10.850;2022-08-05T10:51:58;2.10;;;1.90;;
8171;SDS011;4127;47.908;10.850;2022-08-05T10:54:47;2.00;;;1.90;;
8171;SDS011;4127;47.908;10.850;2022-08-05T10:57:27;2.33;;;1.92;;
8171;SDS011;4127;47.908;10.850;2022-08-05T11:06:02;2.20;;;2.00;;
8171;SDS011;4127;47.908;10.850;2022-08-05T11:08:30;2.20;;;2.00;;
8171;SDS011;4127;47.908;10.850;2022-08-05T11:14:30;2.40;;;2.20;;
8171;SDS011;4127;47.908;10.850;2022-08-05T11:22:57;1.90;;;1.80;;
8171;SDS011;4127;47.908;10.850;2022-08-05T11:25:35;2.28;;;2.10;;
8171;SDS011;4127;47.908;10.850;2022-08-05T11:33:38;2.30;;;2.10;;
8171;SDS011;4127;47.908;10.850;2022-08-05T11:36:42;1.92;;;1.83;;
8171;SDS011;4127;47.908;10.850;2022-08-05T11:42:21;2.10;;;2.00;;
8171;SDS011;4127;47.908;10.850;2022-08-05T11:44:53;1.83;;;1.73;;
8171;SDS011;4127;47.908;10.850;2022-08-05T11:47:34;2.00;;;1.90;;
8171;SDS011;4127;47.908;10.850;2022-08-05T11:50:15;2.10;;;2.00;;
8171;SDS011;4127;47.908;10.850;2022-08-05T11:52:42;2.10;;;1.90;;
8171;SDS011;4127;47.908;10.850;2022-08-05T11:55:14;1.80;;;1.70;;
8171;SDS011;4127;47.908;10.850;2022-08-05T11:57:44;2.00;;;1.90;;
8171;SDS011;4127;47.908;10.850;2022-08-05T12:00:31;1.92;;;1.70;;
8171;SDS011;4127;47.908;10.850;2022-08-05T12:03:19;2.15;;;2.05;;
8171;SDS011;4127;47.908;10.850;2022-08-05T12:06:01;2.08;;;1.88;;
8171;SDS011;4127;47.908;10.850;2022-08-05T12:13:53;1.85;;;1.60;;
8171;SDS011;4127;47.908;10.850;2022-08-05T12:16:33;2.10;;;2.00;;
8171;SDS011;4127;47.908;10.850;2022-08-05T12:19:04;2.10;;;2.00;;
8171;SDS011;4127;47.908;10.850;2022-08-05T12:21:35;2.08;;;1.88;;
8171;SDS011;4127;47.908;10.850;2022-08-05T12:24:17;2.00;;;1.90;;
8171;SDS011;4127;47.908;10.850;2022-08-05T12:26:46;2.25;;;2.15;;
8171;SDS011;4127;47.908;10.850;2022-08-05T12:29:16;2.00;;;1.90;;
8171;SDS011;4127;47.908;10.850;2022-08-05T12:34:28;2.03;;;1.92;;
8171;SDS011;4127;47.908;10.850;2022-08-05T12:37:03;2.88;;;2.33;;
8171;SDS011;4127;47.908;10.850;2022-08-05T12:39:43;2.50;;;2.30;;
8171;SDS011;4127;47.908;10.850;2022-08-05T12:42:17;2.67;;;2.47;;
8171;SDS011;4127;47.908;10.850;2022-08-05T12:44:45;2.28;;;2.10;;
8171;SDS011;4127;47.908;10.850;2022-08-05T12:47:13;2.45;;;2.28;;
8171;SDS011;4127;47.908;10.850;2022-08-05T12:49:53;2.95;;;2.15;;
8171;SDS011;4127;47.908;10.850;2022-08-05T12:52:31;2.45;;;2.25;;
8171;SDS011;4127;47.908;10.850;2022-08-05T12:55:17;2.25;;;2.00;;
8171;SDS011;4127;47.908;10.850;2022-08-05T12:57:48;2.13;;;2.03;;
8171;SDS011;4127;47.908;10.850;2022-08-05T13:00:40;2.50;;;2.30;;
8171;SDS011;4127;47.908;10.850;2022-08-05T13:03:29;2.53;;;2.33;;
8171;SDS011;4127;47.908;10.850;2022-08-05T13:05:58;2.10;;;2.00;;
8171;SDS011;4127;47.908;10.850;2022-08-05T13:08:29;2.45;;;2.25;;
8171;SDS011;4127;47.908;10.850;2022-08-05T13:10:58;2.20;;;2.00;;
8171;SDS011;4127;47.908;10.850;2022-08-05T13:13:26;2.30;;;2.10;;
8171;SDS011;4127;47.908;10.850;2022-08-05T13:16:13;2.63;;;2.13;;
8171;SDS011;4127;47.908;10.850;2022-08-05T13:18:51;1.95;;;1.85;;
8171;SDS011;4127;47.908;10.850;2022-08-05T13:21:22;2.20;;;2.00;;
8171;SDS011;4127;47.908;10.850;2022-08-05T13:24:03;2.00;;;1.80;;
8171;SDS011;4127;47.908;10.850;2022-08-05T13:26:34;1.60;;;1.50;;
8171;SDS011;4127;47.908;10.850;2022-08-05T13:29:01;1.85;;;1.73;;
8171;SDS011;4127;47.908;10.850;2022-08-05T13:31:30;2.00;;;1.90;;
8171;SDS011;4127;47.908;10.850;2022-08-05T13:34:17;1.80;;;1.70;;
8171;SDS011;4127;47.908;10.850;2022-08-05T13:36:48;1.80;;;1.70;;
8171;SDS011;4127;47.908;10.850;2022-08-05T13:39:15;2.33;;;2.13;;
8171;SDS011;4127;47.908;10.850;2022-08-05T13:42:02;1.70;;;1.60;;
8171;SDS011;4127;47.908;10.850;2022-08-05T13:44:31;1.67;;;1.58;;
8171;SDS011;4127;47.908;10.850;2022-08-05T13:46:59;1.83;;;1.70;;
8171;SDS011;4127;47.908;10.850;2022-08-05T13:49:34;1.50;;;1.40;;
8171;SDS011;4127;47.908;10.850;2022-08-05T13:52:17;1.70;;;1.50;;
8171;SDS011;4127;47.908;10.850;2022-08-05T13:54:54;1.77;;;1.67;;
8171;SDS011;4127;47.908;10.850;2022-08-05T13:57:24;1.70;;;1.60;;
8171;SDS011;4127;47.908;10.850;2022-08-05T14:00:11;1.80;;;1.70;;
8171;SDS011;4127;47.908;10.850;2022-08-05T14:02:38;1.70;;;1.60;;
8171;SDS011;4127;47.908;10.850;2022-08-05T14:05:05;1.55;;;1.45;;
8171;SDS011;4127;47.908;10.850;2022-08-05T14:07:38;2.30;;;2.10;;
8171;SDS011;4127;47.908;10.850;2022-08-05T14:10:26;1.50;;;1.40;;
8171;SDS011;4127;47.908;10.850;2022-08-05T14:12:54;1.80;;;1.70;;
8171;SDS011;4127;47.908;10.850;2022-08-05T14:15:22;1.73;;;1.50;;
8171;SDS011;4127;47.908;10.850;2022-08-05T14:18:10;1.73;;;1.63;;
8171;SDS011;4127;47.908;10.850;2022-08-05T14:20:44;1.77;;;1.67;;
8171;SDS011;4127;47.908;10.850;2022-08-05T14:23:13;1.70;;;1.60;;
8171;SDS011;4127;47.908;10.850;2022-08-05T14:25:54;2.08;;;1.83;;
8171;SDS011;4127;47.908;10.850;2022-08-05T14:28:25;1.70;;;1.50;;
8171;SDS011;4127;47.908;10.850;2022-08-05T14:30:58;2.03;;;1.85;;
8171;SDS011;4127;47.908;10.850;2022-08-05T14:33:26;1.90;;;1.80;;
8171;SDS011;4127;47.908;10.850;2022-08-05T14:36:14;1.70;;;1.60;;
8171;SDS011;4127;47.908;10.850;2022-08-05T14:38:46;1.80;;;1.50;;
8171;SDS011;4127;47.908;10.850;2022-08-05T14:41:13;1.60;;;1.50;;
8171;SDS011;4127;47.908;10.850;2022-08-05T14:43:43;1.75;;;1.65;;
8171;SDS011;4127;47.908;10.850;2022-08-05T14:46:30;1.60;;;1.50;;
8171;SDS011;4127;47.908;10.850;2022-08-05T14:49:01;1.90;;;1.45;;
8171;SDS011;4127;47.908;10.850;2022-08-05T14:51:34;1.52;;;1.42;;
8171;SDS011;4127;47.908;10.850;2022-08-05T14:54:03;1.70;;;1.60;;
8171;SDS011;4127;47.908;10.850;2022-08-05T14:56:50;1.60;;;1.50;;
8171;SDS011;4127;47.908;10.850;2022-08-05T14:59:20;1.40;;;1.30;;
8171;SDS011;4127;47.908;10.850;2022-08-05T15:01:47;1.63;;;1.52;;
8171;SDS011;4127;47.908;10.850;2022-08-05T15:04:15;1.50;;;1.40;;
8171;SDS011;4127;47.908;10.850;2022-08-05T15:06:48;2.00;;;1.80;;
8171;SDS011;4127;47.908;10.850;2022-08-05T15:09:16;1.70;;;1.60;;
8171;SDS011;4127;47.908;10.850;2022-08-05T15:12:04;1.60;;;1.50;;
8171;SDS011;4127;47.908;10.850;2022-08-05T15:14:34;1.50;;;1.40;;
8171;SDS011;4127;47.908;10.850;2022-08-05T15:17:18;1.63;;;1.52;;
8171;SDS011;4127;47.908;10.850;2022-08-05T15:20:05;1.60;;;1.50;;
8171;SDS011;4127;47.908;10.850;2022-08-05T15:22:44;1.80;;;1.70;;
8171;SDS011;4127;47.908;10.850;2022-08-05T15:25:19;1.67;;;1.58;;
8171;SDS011;4127;47.908;10.850;2022-08-05T15:28:06;1.70;;;1.60;;
8171;SDS011;4127;47.908;10.850;2022-08-05T15:30:39;3.17;;;1.55;;
8171;SDS011;4127;47.908;10.850;2022-08-05T15:33:08;1.50;;;1.40;;
8171;SDS011;4127;47.908;10.850;2022-08-05T15:35:36;1.73;;;1.63;;
8171;SDS011;4127;47.908;10.850;2022-08-05T15:38:11;1.58;;;1.48;;
8171;SDS011;4127;47.908;10.850;2022-08-05T15:40:57;1.98;;;1.88;;
8171;SDS011;4127;47.908;10.850;2022-08-05T15:43:44;1.52;;;1.42;;
8171;SDS011;4127;47.908;10.850;2022-08-05T15:46:12;1.77;;;1.60;;
8171;SDS011;4127;47.908;10.850;2022-08-05T15:48:39;1.60;;;1.50;;
8171;SDS011;4127;47.908;10.850;2022-08-05T15:51:26;1.70;;;1.60;;
8171;SDS011;4127;47.908;10.850;2022-08-05T15:54:14;1.90;;;1.80;;
8171;SDS011;4127;47.908;10.850;2022-08-05T15:56:41;1.70;;;1.60;;
8171;SDS011;4127;47.908;10.850;2022-08-05T15:59:09;1.50;;;1.40;;
8171;SDS011;4127;47.908;10.850;2022-08-05T16:01:47;1.60;;;1.50;;
8171;SDS011;4127;47.908;10.850;2022-08-05T16:04:18;1.60;;;1.50;;
8171;SDS011;4127;47.908;10.850;2022-08-05T16:06:51;1.50;;;1.40;;
8171;SDS011;4127;47.908;10.850;2022-08-05T16:09:20;1.65;;;1.55;;
8171;SDS011;4127;47.908;10.850;2022-08-05T16:11:49;1.60;;;1.50;;
8171;SDS011;4127;47.908;10.850;2022-08-05T16:14:19;1.50;;;1.40;;
8171;SDS011;4127;47.908;10.850;2022-08-05T16:16:47;1.50;;;1.40;;
8171;SDS011;4127;47.908;10.850;2022-08-05T16:19:14;1.38;;;1.30;;
8171;SDS011;4127;47.908;10.850;2022-08-05T16:22:01;1.42;;;1.33;;
8171;SDS011;4127;47.908;10.850;2022-08-05T16:24:29;1.60;;;1.50;;
8171;SDS011;4127;47.908;10.850;2022-08-05T16:27:16;1.70;;;1.60;;
8171;SDS011;4127;47.908;10.850;2022-08-05T16:29:43;1.40;;;1.30;;
8171;SDS011;4127;47.908;10.850;2022-08-05T16:32:16;1.48;;;1.38;;
8171;SDS011;4127;47.908;10.850;2022-08-05T16:34:53;1.65;;;1.55;;
8171;SDS011;4127;47.908;10.850;2022-08-05T16:37:21;1.52;;;1.42;;
8171;SDS011;4127;47.908;10.850;2022-08-05T16:40:08;1.48;;;1.38;;
8171;SDS011;4127;47.908;10.850;2022-08-05T16:42:54;1.92;;;1.67;;
8171;SDS011;4127;47.908;10.850;2022-08-05T16:45:20;1.60;;;1.48;;
8171;SDS011;4127;47.908;10.850;2022-08-05T16:48:07;1.25;;;1.17;;
8171;SDS011;4127;47.908;10.850;2022-08-05T16:50:35;1.77;;;1.67;;
8171;SDS011;4127;47.908;10.850;2022-08-05T16:53:02;1.80;;;1.70;;
8171;SDS011;4127;47.908;10.850;2022-08-05T16:55:47;1.60;;;1.50;;